Time;durP1;ratioP1;P1;durP2;ratioP2;P2;SDS_P1;SDS_P2;PMS_P1;PMS_P2;Temp;Humidity;BMP_temperature;BMP_pressure;BME280_temperature;BME280_humidity;BME280_pressure;Samples;Min_cycle;Max_cycle;Signal;HPM_P1;HPM_P2
2021/12/13 00:01:16;;;;;;;36.65;23.13;;;25.80;99.90;;;;;;5013668;28;20038;-65
2021/12/13 00:03:53;;;;;;;32.13;21.13;;;25.80;99.90;;;;;;5013890;28;20104;-63
2021/12/13 00:06:26;;;;;;;34.83;21.17;;;25.80;99.90;;;;;;5013091;28;20164;-64
2021/12/13 00:08:57;;;;;;;39.30;18.90;;;25.80;99.90;;;;;;5013483;28;20042;-64
2021/12/13 00:11:29;;;;;;;42.20;19.98;;;25.70;99.90;;;;;;5026057;23;20058;-63
2021/12/13 00:13:58;;;;;;;36.47;21.38;;;25.70;99.90;;;;;;5012913;28;20173;-64
2021/12/13 00:16:31;;;;;;;35.42;21.77;;;25.70;99.90;;;;;;5011798;28;20049;-64
2021/12/13 00:19:05;;;;;;;39.63;22.65;;;25.70;99.90;;;;;;5013331;28;20029;-64
2021/12/13 00:21:45;;;;;;;41.60;23.23;;;25.70;99.90;;;;;;5013456;28;20033;-65
2021/12/13 00:24:25;;;;;;;35.95;23.15;;;25.70;99.90;;;;;;5013239;28;20073;-65
2021/12/13 00:26:59;;;;;;;47.08;23.65;;;25.70;99.90;;;;;;5013392;28;20037;-65
2021/12/13 00:29:41;;;;;;;43.95;23.65;;;25.80;99.90;;;;;;5013370;28;20034;-63
2021/12/13 00:32:19;;;;;;;43.13;24.83;;;25.80;99.90;;;;;;5013363;28;20038;-63
2021/12/13 00:34:55;;;;;;;46.83;24.38;;;25.90;99.90;;;;;;5013392;28;20101;-64
2021/12/13 00:37:29;;;;;;;44.72;24.23;;;25.90;99.90;;;;;;5013491;28;20090;-64
2021/12/13 00:40:01;;;;;;;48.60;23.23;;;25.90;99.90;;;;;;5013399;28;20092;-64
2021/12/13 00:42:34;;;;;;;40.38;23.40;;;25.90;99.90;;;;;;5013504;28;20022;-64
2021/12/13 00:45:06;;;;;;;44.90;23.67;;;26.00;99.90;;;;;;5013073;28;20044;-64
2021/12/13 00:47:35;;;;;;;45.30;23.73;;;26.00;99.90;;;;;;5013375;28;20088;-64
2021/12/13 00:50:08;;;;;;;47.90;25.73;;;26.10;99.90;;;;;;5013326;28;20258;-65
2021/12/13 00:52:37;;;;;;;40.67;23.50;;;26.10;99.90;;;;;;5013232;28;20023;-64
2021/12/13 00:55:18;;;;;;;43.53;29.00;;;26.10;99.90;;;;;;5014075;28;20018;-64
2021/12/13 00:57:47;;;;;;;41.95;27.58;;;26.10;99.90;;;;;;5016365;28;20038;-63
2021/12/13 01:00:28;;;;;;;36.03;21.23;;;26.10;99.90;;;;;;5016479;28;20475;-63
2021/12/13 01:03:00;;;;;;;34.05;22.20;;;26.10;99.90;;;;;;5016729;28;20087;-65
2021/12/13 01:05:50;;;;;;;29.40;20.02;;;26.10;99.90;;;;;;5016549;28;20056;-64
2021/12/13 01:08:47;;;;;;;27.38;18.02;;;26.20;99.90;;;;;;5016394;28;20120;-63
2021/12/13 01:11:37;;;;;;;28.80;19.17;;;26.30;99.90;;;;;;5016394;28;20379;-63
2021/12/13 01:14:18;;;;;;;21.63;15.55;;;26.40;99.90;;;;;;5016287;28;20034;-64
2021/12/13 01:17:07;;;;;;;26.70;16.63;;;26.30;99.90;;;;;;5015832;28;20061;-63
2021/12/13 01:25:38;;;;;;;22.77;15.60;;;26.40;99.90;;;;;;5016415;28;20030;-63
2021/12/13 01:28:20;;;;;;;32.35;23.55;;;26.50;99.90;;;;;;5016127;28;20398;-64
2021/12/13 01:30:59;;;;;;;37.45;20.48;;;26.60;99.90;;;;;;5015180;28;20110;-63
2021/12/13 01:33:28;;;;;;;39.50;19.83;;;26.60;99.90;;;;;;5016268;28;20427;-65
2021/12/13 01:36:00;;;;;;;22.35;14.63;;;26.70;99.90;;;;;;5016249;28;20030;-64
2021/12/13 01:38:35;;;;;;;22.80;14.40;;;26.70;99.90;;;;;;5016127;28;20026;-64
2021/12/13 01:41:10;;;;;;;27.20;17.23;;;26.80;99.90;;;;;;5015598;28;20131;-64
2021/12/13 01:43:42;;;;;;;36.38;22.60;;;26.90;99.90;;;;;;5016010;28;20050;-64
2021/12/13 01:46:10;;;;;;;31.05;17.38;;;26.90;99.90;;;;;;5015896;28;20037;-65
2021/12/13 01:48:41;;;;;;;26.83;17.13;;;27.00;99.90;;;;;;5015906;28;20065;-64
2021/12/13 01:51:12;;;;;;;22.95;14.25;;;27.10;99.90;;;;;;5015860;28;20430;-64
2021/12/13 01:53:58;;;;;;;26.88;15.15;;;27.10;99.90;;;;;;5015597;28;20109;-65
2021/12/13 01:56:41;;;;;;;20.00;11.32;;;27.20;99.90;;;;;;5012261;28;20037;-65
2021/12/13 02:02:16;;;;;;;29.05;11.23;;;27.40;99.90;;;;;;5015400;28;20514;-64
2021/12/13 02:04:45;;;;;;;16.73;12.00;;;27.60;99.90;;;;;;5015663;28;20033;-65
2021/12/13 02:07:15;;;;;;;18.52;13.15;;;27.70;99.90;;;;;;5015064;28;20029;-65
2021/12/13 02:09:45;;;;;;;19.27;11.90;;;27.90;99.90;;;;;;5015461;28;20109;-63
2021/12/13 02:12:15;;;;;;;19.95;13.43;;;27.90;99.90;;;;;;5015499;28;20030;-64
2021/12/13 02:16:55;;;;;;;25.50;12.77;;;27.90;99.90;;;;;;5015190;28;20022;-64
2021/12/13 02:17:42;;;;;;;19.45;14.10;;;27.90;99.90;;;;;;5015101;28;20030;-65
2021/12/13 02:20:25;;;;;;;20.80;13.90;;;27.90;99.90;;;;;;5015231;28;20045;-65
2021/12/13 02:22:54;;;;;;;26.95;13.65;;;28.00;99.90;;;;;;5002030;28;20038;-65
2021/12/13 02:25:23;;;;;;;22.00;13.98;;;28.00;99.90;;;;;;5014865;28;20057;-64
2021/12/13 02:28:04;;;;;;;28.60;13.10;;;28.10;99.90;;;;;;5015029;28;20029;-65
2021/12/13 02:30:37;;;;;;;23.00;12.13;;;28.10;99.90;;;;;;5014490;28;20038;-65
2021/12/13 02:33:07;;;;;;;30.92;13.48;;;28.10;99.90;;;;;;5014765;28;20080;-64
2021/12/13 02:35:38;;;;;;;20.75;11.13;;;28.10;99.90;;;;;;5014722;28;20026;-63
2021/12/13 02:38:07;;;;;;;18.50;11.68;;;28.10;99.90;;;;;;5014146;28;20030;-64
2021/12/13 02:40:35;;;;;;;34.22;10.88;;;28.10;99.90;;;;;;5015020;28;20026;-65
2021/12/13 02:43:03;;;;;;;20.83;11.23;;;28.20;99.90;;;;;;5014243;28;20144;-64
2021/12/13 02:45:43;;;;;;;20.08;10.73;;;28.20;99.90;;;;;;5014330;28;20113;-65
2021/12/13 02:48:24;;;;;;;16.98;10.98;;;28.20;99.90;;;;;;5014273;28;20391;-65
2021/12/13 02:51:14;;;;;;;23.63;12.45;;;28.20;99.90;;;;;;5014170;28;20030;-65
2021/12/13 02:53:45;;;;;;;24.92;11.85;;;28.20;99.90;;;;;;5014160;28;20022;-65
2021/12/13 02:56:14;;;;;;;23.35;11.63;;;28.30;99.90;;;;;;5011407;28;20026;-65
2021/12/13 02:58:41;;;;;;;23.00;11.07;;;28.30;99.90;;;;;;5014543;28;20084;-65
2021/12/13 03:01:20;;;;;;;26.30;11.55;;;28.50;99.90;;;;;;5014425;28;20030;-65
2021/12/13 03:03:51;;;;;;;57.78;40.97;;;28.60;99.90;;;;;;5014253;28;20490;-65
2021/12/13 03:06:23;;;;;;;30.53;19.37;;;28.60;99.90;;;;;;5014334;28;20470;-64
2021/12/13 03:09:00;;;;;;;20.45;11.45;;;28.70;99.90;;;;;;5013329;28;20080;-63
2021/12/13 03:11:32;;;;;;;19.00;10.77;;;28.70;99.90;;;;;;5013781;28;20441;-64
2021/12/13 03:14:13;;;;;;;25.08;15.48;;;28.80;99.90;;;;;;5014460;28;20068;-64
2021/12/13 03:16:51;;;;;;;29.25;18.25;;;28.90;99.90;;;;;;5013410;28;20038;-63
2021/12/13 03:19:38;;;;;;;22.42;11.55;;;29.00;99.90;;;;;;5013626;28;20034;-64
2021/12/13 03:22:12;;;;;;;28.50;10.35;;;29.00;99.90;;;;;;5002389;28;20026;-62
2021/12/13 03:25:03;;;;;;;23.75;11.93;;;29.10;99.90;;;;;;4994888;28;20100;-63
2021/12/13 03:27:36;;;;;;;24.42;11.60;;;29.20;99.90;;;;;;5004686;28;20040;-64
2021/12/13 03:30:17;;;;;;;25.80;11.25;;;29.20;99.90;;;;;;5014378;28;20030;-63
2021/12/13 03:33:01;;;;;;;30.05;15.68;;;29.10;99.90;;;;;;5004457;28;20018;-64
2021/12/13 03:35:49;;;;;;;22.42;11.95;;;29.20;99.90;;;;;;5000995;28;20092;-64
2021/12/13 03:38:23;;;;;;;20.13;10.77;;;29.20;99.90;;;;;;5014009;28;20061;-63
2021/12/13 03:40:50;;;;;;;40.22;13.70;;;29.30;99.90;;;;;;5003390;28;20379;-62
2021/12/13 03:43:26;;;;;;;24.50;12.45;;;29.40;99.90;;;;;;5013015;28;20042;-63
2021/12/13 03:45:57;;;;;;;16.05;10.40;;;29.50;99.90;;;;;;5010720;28;20034;-63
2021/12/13 03:48:26;;;;;;;18.90;12.38;;;29.30;99.90;;;;;;5010831;28;20185;-64
2021/12/13 03:50:56;;;;;;;114.53;75.00;;;29.30;99.90;;;;;;5008896;28;20045;-64
2021/12/13 03:53:26;;;;;;;28.10;12.93;;;29.50;99.90;;;;;;5007307;28;20533;-64
2021/12/13 03:56:02;;;;;;;15.55;9.68;;;29.50;99.90;;;;;;5001957;28;20035;-65
2021/12/13 03:58:33;;;;;;;29.17;17.30;;;29.60;99.90;;;;;;5011549;28;20083;-66
2021/12/13 04:01:12;;;;;;;20.48;9.82;;;29.70;99.90;;;;;;5014182;28;20030;-64
2021/12/13 04:03:42;;;;;;;19.73;10.25;;;29.70;99.90;;;;;;5014306;28;20073;-65
2021/12/13 04:06:09;;;;;;;20.65;10.80;;;29.90;99.90;;;;;;5014207;28;20034;-66
2021/12/13 04:08:36;;;;;;;25.10;10.73;;;29.90;99.90;;;;;;5014697;28;20037;-65
2021/12/13 04:11:07;;;;;;;19.08;11.00;;;29.80;99.90;;;;;;5009393;28;20030;-65
2021/12/13 04:13:38;;;;;;;23.08;10.90;;;29.80;99.90;;;;;;5013530;28;20026;-65
2021/12/13 04:16:15;;;;;;;28.40;12.93;;;29.70;99.90;;;;;;5013750;28;20184;-66
2021/12/13 04:21:26;;;;;;;26.10;14.55;;;29.90;99.90;;;;;;5013469;28;20033;-65
2021/12/13 04:23:56;;;;;;;25.27;13.73;;;29.70;99.90;;;;;;5012982;28;20042;-65
2021/12/13 04:26:26;;;;;;;28.17;11.50;;;29.60;99.90;;;;;;5013959;28;20073;-65
2021/12/13 04:28:56;;;;;;;24.65;12.88;;;29.70;99.90;;;;;;5014067;28;20026;-65
2021/12/13 04:31:26;;;;;;;19.25;10.07;;;29.90;99.90;;;;;;5017057;28;20026;-63
2021/12/13 04:33:59;;;;;;;28.25;8.65;;;29.80;99.90;;;;;;5017404;28;20025;-63
2021/12/13 04:36:34;;;;;;;25.80;9.55;;;29.90;99.90;;;;;;5017260;28;20087;-64
2021/12/13 04:39:17;;;;;;;17.23;8.48;;;30.00;99.90;;;;;;5027031;28;20552;-64
2021/12/13 04:41:46;;;;;;;23.73;10.50;;;30.20;99.90;;;;;;5025904;28;20390;-64
2021/12/13 04:44:29;;;;;;;25.30;11.13;;;30.30;99.90;;;;;;5009018;28;20033;-64
2021/12/13 04:46:56;;;;;;;15.32;8.82;;;30.40;99.90;;;;;;5013278;28;20025;-64
2021/12/13 04:49:26;;;;;;;17.38;8.88;;;30.40;99.90;;;;;;5017386;28;20029;-65
2021/12/13 04:51:58;;;;;;;15.93;7.88;;;30.50;99.90;;;;;;5017075;28;20021;-64
2021/12/13 04:54:27;;;;;;;16.25;8.77;;;30.50;99.90;;;;;;5015389;28;20033;-64
2021/12/13 04:56:58;;;;;;;20.25;10.88;;;30.60;99.90;;;;;;5009394;28;20123;-64
2021/12/13 04:59:26;;;;;;;16.60;9.20;;;30.70;99.90;;;;;;5014546;28;20486;-64
2021/12/13 05:01:57;;;;;;;20.98;10.13;;;30.60;99.90;;;;;;5016170;28;20171;-63
2021/12/13 05:04:29;;;;;;;21.48;9.38;;;30.90;99.90;;;;;;5017109;28;20029;-65
2021/12/13 05:06:58;;;;;;;19.73;9.38;;;30.80;99.90;;;;;;5014679;28;20041;-63
2021/12/13 05:09:28;;;;;;;27.95;14.48;;;30.60;99.90;;;;;;5016132;28;20428;-64
2021/12/13 05:12:14;;;;;;;245.40;183.50;;;30.60;99.50;;;;;;5002784;28;20022;-65
2021/12/13 05:14:48;;;;;;;24.23;12.27;;;30.60;99.90;;;;;;5016838;28;20021;-65
2021/12/13 05:17:17;;;;;;;16.98;10.85;;;30.80;99.90;;;;;;5016923;28;20030;-65
2021/12/13 05:19:51;;;;;;;15.70;7.15;;;30.90;98.90;;;;;;5016713;28;20022;-65
2021/12/13 05:22:21;;;;;;;79.97;58.75;;;31.00;98.10;;;;;;5017101;28;20033;-65
2021/12/13 05:24:52;;;;;;;18.20;8.52;;;31.00;99.90;;;;;;5016442;28;20076;-64
2021/12/13 05:27:30;;;;;;;21.13;8.20;;;31.00;98.30;;;;;;5016824;28;20379;-65
2021/12/13 05:30:12;;;;;;;17.27;6.57;;;30.90;98.80;;;;;;5007496;28;20588;-66
2021/12/13 05:32:47;;;;;;;14.15;6.72;;;31.00;97.80;;;;;;5002293;28;20014;-64
2021/12/13 05:35:24;;;;;;;14.73;6.32;;;31.10;96.30;;;;;;5002171;28;20356;-65
2021/12/13 05:37:55;;;;;;;10.63;5.82;;;31.20;97.00;;;;;;5016414;28;20033;-66
2021/12/13 05:40:26;;;;;;;16.50;5.32;;;31.20;96.00;;;;;;5013033;28;20038;-64
2021/12/13 05:42:57;;;;;;;24.23;7.07;;;31.40;94.90;;;;;;5008052;28;20064;-65
2021/12/13 05:45:35;;;;;;;12.70;5.10;;;31.40;95.10;;;;;;5006615;28;20026;-66
2021/12/13 05:48:04;;;;;;;11.50;5.40;;;31.50;92.60;;;;;;5003948;28;20553;-66
2021/12/13 05:50:39;;;;;;;12.93;5.85;;;31.50;93.70;;;;;;5005310;28;20022;-64
2021/12/13 05:53:14;;;;;;;13.00;7.28;;;31.50;93.60;;;;;;5006810;28;20030;-64
2021/12/13 05:55:46;;;;;;;19.17;9.00;;;31.50;94.80;;;;;;5006657;28;20497;-64
2021/12/13 05:58:26;;;;;;;15.77;7.50;;;31.40;94.40;;;;;;5005568;28;20030;-65
2021/12/13 06:00:56;;;;;;;15.77;6.30;;;31.60;93.60;;;;;;5007949;28;20036;-65
2021/12/13 06:03:33;;;;;;;15.80;5.82;;;31.60;92.80;;;;;;5005590;28;20023;-68
2021/12/13 06:06:13;;;;;;;17.13;11.65;;;31.70;92.60;;;;;;5003444;28;20034;-68
2021/12/13 06:08:45;;;;;;;17.95;9.13;;;31.90;92.60;;;;;;5014415;28;20033;-66
2021/12/13 06:11:18;;;;;;;13.70;6.15;;;31.90;92.30;;;;;;5009158;28;20033;-64
2021/12/13 06:13:46;;;;;;;12.13;5.47;;;31.80;91.30;;;;;;4997295;28;20022;-64
2021/12/13 06:16:19;;;;;;;11.93;5.80;;;31.80;90.50;;;;;;5003610;28;20387;-65
2021/12/13 06:18:57;;;;;;;19.88;6.82;;;32.00;91.10;;;;;;5006580;28;20109;-65
2021/12/13 06:21:47;;;;;;;19.67;9.73;;;32.20;91.00;;;;;;5003955;28;20022;-65
2021/12/13 06:24:22;;;;;;;13.52;8.43;;;32.10;91.30;;;;;;5007875;28;20026;-65
2021/12/13 06:26:49;;;;;;;16.10;8.85;;;32.00;91.80;;;;;;5002919;28;20026;-65
2021/12/13 06:29:17;;;;;;;14.55;7.20;;;32.10;92.20;;;;;;5008511;28;20391;-65
2021/12/13 06:31:46;;;;;;;15.35;8.45;;;32.20;90.60;;;;;;5012425;28;20036;-65
2021/12/13 06:34:16;;;;;;;17.70;8.35;;;32.20;90.70;;;;;;5013409;28;20104;-66
2021/12/13 06:36:46;;;;;;;19.83;8.13;;;32.10;91.40;;;;;;5009285;28;20591;-65
2021/12/13 06:39:22;;;;;;;13.88;7.60;;;32.00;91.60;;;;;;5010904;28;20049;-64
2021/12/13 06:41:58;;;;;;;14.80;6.50;;;32.10;91.60;;;;;;5007040;28;20097;-66
2021/12/13 06:44:29;;;;;;;12.75;7.57;;;32.10;91.20;;;;;;5006769;28;20029;-66
2021/12/13 06:47:06;;;;;;;15.57;8.07;;;32.00;90.50;;;;;;5008121;28;20125;-66
2021/12/13 06:49:48;;;;;;;20.70;7.82;;;31.90;91.10;;;;;;5003939;28;20390;-64
2021/12/13 06:52:14;;;;;;;13.52;7.20;;;31.80;91.00;;;;;;5006471;28;20080;-65
2021/12/13 06:54:44;;;;;;;11.18;6.95;;;31.70;91.00;;;;;;5000732;28;20026;-65
2021/12/13 06:57:16;;;;;;;19.65;11.18;;;31.70;90.90;;;;;;5006115;28;20463;-65
2021/12/13 06:59:56;;;;;;;16.02;7.90;;;31.70;91.00;;;;;;4994788;28;20643;-63
2021/12/13 07:02:25;;;;;;;20.80;9.75;;;31.70;91.20;;;;;;5007987;28;20068;-65
2021/12/13 07:04:57;;;;;;;18.38;7.80;;;31.70;92.10;;;;;;5001291;28;20502;-63
2021/12/13 07:07:26;;;;;;;;;;;31.70;91.90;;;;;;5003662;28;20018;-65
2021/12/13 07:10:00;;;;;;;24.52;10.48;;;31.50;93.00;;;;;;5006878;28;19909;-63
2021/12/13 07:12:31;;;;;;;25.95;10.07;;;31.50;93.20;;;;;;5008995;28;20482;-63
2021/12/13 07:14:59;;;;;;;22.08;14.10;;;31.40;93.10;;;;;;5005426;28;20034;-65
2021/12/13 07:17:33;;;;;;;22.70;13.65;;;31.30;92.90;;;;;;5004048;28;20105;-63
2021/12/13 07:20:12;;;;;;;23.67;10.43;;;31.20;93.70;;;;;;5002310;28;20026;-64
2021/12/13 07:22:38;;;;;;;21.60;10.10;;;31.10;93.70;;;;;;5000266;28;20030;-64
2021/12/13 07:25:10;;;;;;;32.95;12.88;;;31.20;94.70;;;;;;5005663;28;20391;-64
2021/12/13 07:27:44;;;;;;;23.98;12.68;;;31.20;93.80;;;;;;5004430;28;20521;-66
2021/12/13 07:30:17;;;;;;;16.00;9.50;;;31.30;93.90;;;;;;4997009;28;20030;-65
2021/12/13 07:32:58;;;;;;;67.22;39.03;;;31.30;93.00;;;;;;5000184;28;20037;-63
2021/12/13 07:35:41;;;;;;;84.95;49.08;;;31.20;93.10;;;;;;5013967;28;20021;-64
2021/12/13 07:38:16;;;;;;;220.55;140.02;;;31.20;93.90;;;;;;5006151;28;20068;-63
2021/12/13 07:40:43;;;;;;;178.88;108.38;;;31.20;94.20;;;;;;5005375;28;20030;-64
2021/12/13 07:43:12;;;;;;;225.05;136.05;;;31.10;94.00;;;;;;5004949;28;20546;-64
2021/12/13 07:45:54;;;;;;;195.98;111.47;;;31.00;93.80;;;;;;5009439;28;20052;-64
2021/12/13 07:48:31;;;;;;;232.43;128.90;;;31.10;93.70;;;;;;5011468;28;20034;-64
2021/12/13 07:51:25;;;;;;;205.73;115.35;;;31.10;93.90;;;;;;5008189;28;20712;-64
2021/12/13 07:53:58;;;;;;;224.98;116.57;;;31.10;94.50;;;;;;5003608;28;20033;-65
2021/12/13 07:56:40;;;;;;;200.48;112.05;;;31.10;94.40;;;;;;5001988;28;20022;-65
2021/12/13 07:59:18;;;;;;;;;;;31.10;94.80;;;;;;5003623;28;20034;-65
2021/12/13 08:01:53;;;;;;;246.13;121.18;;;31.20;95.10;;;;;;5002603;28;19961;-64
2021/12/13 08:04:26;;;;;;;226.43;112.85;;;31.00;94.90;;;;;;5004513;28;20027;-66
2021/12/13 08:07:00;;;;;;;108.28;57.50;;;30.90;95.50;;;;;;5007681;28;20029;-65
2021/12/13 08:09:29;;;;;;;160.93;76.97;;;30.80;95.00;;;;;;5011678;28;20034;-65
2021/12/13 08:12:13;;;;;;;75.20;38.60;;;31.00;95.90;;;;;;5006191;28;20030;-66
2021/12/13 08:14:42;;;;;;;172.35;89.60;;;31.00;95.10;;;;;;5005016;28;20026;-64
2021/12/13 08:17:17;;;;;;;186.25;97.13;;;31.00;95.70;;;;;;5012306;28;20096;-65
2021/12/13 08:19:57;;;;;;;152.27;88.47;;;31.00;96.40;;;;;;5009932;28;20053;-63
2021/12/13 08:22:28;;;;;;;52.25;31.35;;;31.00;96.00;;;;;;5005854;28;20034;-66
2021/12/13 08:25:00;;;;;;;30.08;15.82;;;31.00;96.20;;;;;;5011423;28;20076;-66
2021/12/13 08:27:29;;;;;;;;;;;30.90;95.70;;;;;;5015730;28;20034;-66
2021/12/13 08:30:10;;;;;;;23.13;13.63;;;31.00;96.30;;;;;;5012461;28;19936;-65
2021/12/13 08:32:38;;;;;;;40.17;18.95;;;30.90;96.30;;;;;;5003045;28;20471;-65
2021/12/13 08:35:06;;;;;;;39.60;18.17;;;30.90;96.90;;;;;;4998178;28;20030;-64
2021/12/13 08:37:40;;;;;;;29.00;13.63;;;30.90;97.00;;;;;;5002218;28;20383;-65
2021/12/13 08:40:13;;;;;;;29.75;14.82;;;30.90;97.20;;;;;;5007898;28;20131;-65
2021/12/13 08:42:46;;;;;;;51.42;27.98;;;30.80;98.10;;;;;;5009167;28;20030;-65
2021/12/13 08:45:31;;;;;;;29.73;12.65;;;30.90;97.80;;;;;;5007370;28;20109;-65
2021/12/13 08:48:12;;;;;;;27.00;13.30;;;30.90;97.10;;;;;;5009544;28;20041;-66
2021/12/13 08:50:50;;;;;;;22.17;10.18;;;30.90;96.60;;;;;;5007818;28;20026;-63
2021/12/13 08:53:24;;;;;;;34.20;14.85;;;30.90;97.70;;;;;;4998862;28;20534;-65
2021/12/13 08:55:58;;;;;;;40.83;17.80;;;30.80;98.00;;;;;;5007604;28;20029;-65
2021/12/13 08:58:25;;;;;;;38.80;18.98;;;30.80;98.20;;;;;;5011258;28;20026;-66
2021/12/13 09:00:59;;;;;;;41.80;21.52;;;30.80;97.70;;;;;;5012310;28;20038;-64
2021/12/13 09:03:28;;;;;;;48.83;24.45;;;30.90;98.00;;;;;;5016528;28;20026;-65
2021/12/13 09:06:02;;;;;;;42.50;23.00;;;30.90;97.80;;;;;;5016935;28;20121;-66
2021/12/13 09:08:49;;;;;;;45.63;26.42;;;30.90;97.80;;;;;;5016933;28;20074;-65
2021/12/13 09:11:26;;;;;;;136.32;73.47;;;31.00;98.80;;;;;;5016350;28;20026;-64
2021/12/13 09:14:16;;;;;;;120.65;68.50;;;31.00;98.90;;;;;;5015223;28;20030;-64
2021/12/13 09:17:07;;;;;;;71.47;28.48;;;31.10;97.70;;;;;;5015280;28;20464;-65
2021/12/13 09:19:50;;;;;;;97.53;42.80;;;31.00;95.70;;;;;;5016308;28;20391;-64
2021/12/13 09:22:23;;;;;;;98.93;40.83;;;31.10;97.10;;;;;;5015865;28;20100;-65
2021/12/13 09:24:52;;;;;;;126.28;55.45;;;31.00;96.90;;;;;;5016044;28;20030;-65
2021/12/13 09:27:26;;;;;;;92.68;61.50;;;31.00;96.60;;;;;;5010193;28;20122;-66
2021/12/13 09:30:02;;;;;;;27.60;15.43;;;30.90;97.20;;;;;;5006473;28;20015;-65
2021/12/13 09:32:39;;;;;;;30.65;13.52;;;30.90;96.70;;;;;;5005780;28;20029;-65
2021/12/13 09:35:23;;;;;;;40.30;22.05;;;30.90;96.60;;;;;;5008536;28;20022;-65
2021/12/13 09:37:51;;;;;;;63.67;34.83;;;31.00;97.10;;;;;;5007101;28;20032;-66
2021/12/13 09:40:19;;;;;;;37.38;18.63;;;30.90;96.30;;;;;;5009456;28;20112;-65
2021/12/13 09:42:54;;;;;;;28.92;18.17;;;30.90;96.00;;;;;;5007479;28;20038;-64
2021/12/13 09:45:28;;;;;;;40.50;22.08;;;30.80;96.00;;;;;;5009941;28;20037;-64
2021/12/13 09:47:56;;;;;;;39.28;21.92;;;30.80;96.10;;;;;;5007904;28;20037;-65
2021/12/13 09:50:30;;;;;;;54.55;30.17;;;30.80;95.30;;;;;;5011304;28;20033;-66
2021/12/13 09:53:10;;;;;;;56.00;32.40;;;30.80;95.40;;;;;;5008336;28;20042;-65
2021/12/13 09:55:42;;;;;;;46.53;25.73;;;30.80;94.90;;;;;;5001483;28;20097;-65
2021/12/13 09:58:11;;;;;;;40.20;23.58;;;30.80;94.90;;;;;;5012179;28;20054;-65
2021/12/13 10:00:50;;;;;;;36.50;18.33;;;30.80;95.10;;;;;;5014309;28;20092;-66
2021/12/13 10:03:28;;;;;;;33.92;19.88;;;30.70;95.10;;;;;;5014752;28;20026;-66
2021/12/13 10:06:00;;;;;;;34.60;18.90;;;30.80;95.00;;;;;;5009669;28;20505;-66
2021/12/13 10:08:39;;;;;;;122.70;22.98;;;30.80;95.00;;;;;;5009068;28;20479;-65
2021/12/13 10:11:11;;;;;;;49.42;27.15;;;30.70;95.10;;;;;;5007774;28;20022;-65
2021/12/13 10:13:40;;;;;;;112.78;63.30;;;30.80;95.30;;;;;;5006481;28;20019;-65
2021/12/13 10:16:10;;;;;;;578.38;452.15;;;30.80;95.60;;;;;;5003945;28;20054;-65
2021/12/13 10:18:40;;;;;;;472.52;310.88;;;30.70;95.30;;;;;;5005357;28;20050;-65
2021/12/13 10:21:21;;;;;;;207.73;101.32;;;30.70;95.50;;;;;;5008414;28;20108;-65
2021/12/13 10:23:58;;;;;;;66.27;36.57;;;30.70;95.60;;;;;;5007424;28;20172;-64
2021/12/13 10:26:29;;;;;;;316.10;194.35;;;30.70;95.70;;;;;;5008933;28;20038;-64
2021/12/13 10:28:59;;;;;;;56.00;29.20;;;30.70;96.20;;;;;;5003683;28;20026;-65
2021/12/13 10:31:45;;;;;;;111.60;49.42;;;30.70;96.60;;;;;;5006906;28;20026;-65
2021/12/13 10:34:17;;;;;;;75.13;34.42;;;30.70;96.30;;;;;;5004201;28;20050;-66
2021/12/13 10:36:50;;;;;;;48.10;25.95;;;30.60;97.00;;;;;;5007671;28;20475;-65
2021/12/13 10:39:23;;;;;;;39.75;21.13;;;30.70;97.10;;;;;;5003026;28;20046;-65
2021/12/13 10:41:52;;;;;;;54.65;22.48;;;30.70;96.90;;;;;;5009311;28;20034;-63
2021/12/13 10:44:27;;;;;;;48.10;23.35;;;30.60;97.00;;;;;;5014491;28;20108;-65
2021/12/13 10:47:01;;;;;;;51.75;20.48;;;30.60;97.10;;;;;;5004023;28;20061;-66
2021/12/13 10:49:30;;;;;;;181.40;106.10;;;30.60;97.90;;;;;;5006077;28;20034;-66
2021/12/13 10:52:12;;;;;;;51.17;25.35;;;30.60;97.50;;;;;;5006149;28;20021;-66
2021/12/13 10:54:44;;;;;;;93.27;58.90;;;30.50;98.20;;;;;;5004750;28;20042;-65
2021/12/13 10:57:16;;;;;;;249.68;144.93;;;30.60;98.90;;;;;;4998504;28;20026;-65
2021/12/13 10:59:43;;;;;;;119.55;58.47;;;30.60;99.30;;;;;;5008936;28;20050;-64
2021/12/13 11:02:16;;;;;;;283.50;144.10;;;30.50;99.90;;;;;;5008311;28;20035;-65
2021/12/13 11:04:49;;;;;;;317.58;138.18;;;30.50;99.40;;;;;;5003307;28;20018;-64
2021/12/13 11:07:16;;;;;;;145.80;66.15;;;30.40;99.90;;;;;;5002851;28;20395;-64
2021/12/13 11:09:45;;;;;;;54.72;30.20;;;30.30;99.90;;;;;;5003284;28;20080;-65
2021/12/13 11:12:19;;;;;;;43.65;24.42;;;30.30;99.90;;;;;;5003221;28;20021;-64
2021/12/13 11:14:49;;;;;;;39.00;23.92;;;30.30;99.90;;;;;;5004503;28;20046;-64
2021/12/13 11:17:21;;;;;;;43.33;21.90;;;30.30;99.90;;;;;;5002822;28;20049;-64
2021/12/13 11:19:51;;;;;;;36.60;22.45;;;30.30;99.90;;;;;;5005094;28;20026;-64
2021/12/13 11:22:28;;;;;;;42.97;24.73;;;30.30;99.90;;;;;;5004144;28;20053;-64
2021/12/13 11:25:01;;;;;;;43.72;25.27;;;30.30;99.90;;;;;;5002759;28;20026;-64
2021/12/13 11:27:31;;;;;;;42.72;23.75;;;30.30;99.90;;;;;;5003881;28;20018;-64
2021/12/13 11:30:00;;;;;;;42.13;25.90;;;30.20;99.90;;;;;;5006010;28;20054;-63
2021/12/13 11:32:39;;;;;;;46.35;26.05;;;30.20;99.90;;;;;;5006922;28;20068;-63
2021/12/13 11:35:09;;;;;;;54.13;27.35;;;30.10;99.90;;;;;;4999758;28;20387;-64
2021/12/13 11:38:03;;;;;;;51.30;26.65;;;30.10;99.90;;;;;;5007909;28;20463;-62
2021/12/13 11:40:39;;;;;;;47.78;27.02;;;30.10;99.90;;;;;;5007186;28;20030;-64
2021/12/13 11:43:18;;;;;;;49.00;24.85;;;30.10;99.90;;;;;;5010299;28;20022;-65
2021/12/13 11:46:03;;;;;;;43.85;24.33;;;30.10;99.90;;;;;;5013480;28;20038;-64
2021/12/13 11:48:41;;;;;;;163.38;112.53;;;30.00;99.90;;;;;;5013399;28;20033;-65
2021/12/13 11:51:31;;;;;;;172.27;114.38;;;30.00;99.90;;;;;;5006282;28;20502;-62
2021/12/13 11:54:20;;;;;;;75.50;50.85;;;29.90;99.90;;;;;;5005380;28;20025;-64
2021/12/13 11:56:56;;;;;;;121.05;62.25;;;29.90;99.90;;;;;;5001845;28;20021;-64
2021/12/13 11:59:48;;;;;;;49.67;28.77;;;29.90;99.90;;;;;;5005156;28;20041;-63
2021/12/13 12:02:18;;;;;;;84.30;59.10;;;29.80;99.90;;;;;;5004569;28;20058;-63
2021/12/13 12:05:08;;;;;;;71.05;40.90;;;29.90;99.90;;;;;;5007858;28;20034;-63
2021/12/13 12:07:57;;;;;;;165.70;127.18;;;29.80;99.90;;;;;;5003058;28;20032;-64
2021/12/13 12:10:27;;;;;;;265.08;137.43;;;29.80;99.90;;;;;;5012148;28;20014;-63
2021/12/13 12:13:05;;;;;;;49.25;30.00;;;29.80;99.90;;;;;;5010961;28;20072;-63
2021/12/13 12:15:39;;;;;;;47.13;28.55;;;29.70;99.90;;;;;;5008735;28;20403;-63
2021/12/13 12:18:10;;;;;;;46.05;27.33;;;29.70;99.90;;;;;;5012977;28;20041;-65
2021/12/13 12:20:42;;;;;;;44.75;28.05;;;29.70;99.90;;;;;;5011243;28;20025;-66
2021/12/13 12:23:24;;;;;;;48.25;28.50;;;29.70;99.90;;;;;;5009013;28;20034;-67
2021/12/13 12:25:51;;;;;;;52.38;27.33;;;29.70;99.90;;;;;;5015791;28;20038;-66
2021/12/13 12:28:19;;;;;;;47.83;27.15;;;29.70;99.90;;;;;;5005190;28;20136;-65
2021/12/13 12:30:50;;;;;;;49.00;27.92;;;29.60;99.90;;;;;;5008492;28;20022;-65
2021/12/13 12:33:31;;;;;;;61.78;37.83;;;29.60;99.90;;;;;;5005224;28;20030;-65
2021/12/13 12:36:02;;;;;;;57.47;34.05;;;29.60;99.90;;;;;;5009240;28;20057;-65
2021/12/13 12:38:31;;;;;;;69.50;39.10;;;29.60;99.90;;;;;;5006369;28;20038;-63
2021/12/13 12:41:11;;;;;;;76.82;46.97;;;29.60;99.90;;;;;;5003738;28;20109;-64
2021/12/13 12:43:51;;;;;;;79.93;47.47;;;29.50;99.90;;;;;;5004731;28;20180;-63
2021/12/13 12:46:21;;;;;;;82.60;46.08;;;29.40;99.90;;;;;;5009031;28;20044;-64
2021/12/13 12:48:52;;;;;;;83.38;43.47;;;29.50;99.90;;;;;;5005969;28;20033;-64
2021/12/13 12:51:21;;;;;;;81.80;49.08;;;29.40;99.90;;;;;;5007899;28;20069;-64
2021/12/13 12:53:50;;;;;;;115.03;71.82;;;29.40;99.90;;;;;;5001557;28;20026;-66
2021/12/13 12:56:26;;;;;;;133.10;85.28;;;29.40;99.90;;;;;;5010756;28;20034;-66
2021/12/13 12:59:10;;;;;;;82.60;48.97;;;29.40;99.90;;;;;;4996430;28;20085;-64
2021/12/13 13:01:55;;;;;;;71.40;39.28;;;29.40;99.90;;;;;;5008032;28;20093;-65
2021/12/13 13:04:43;;;;;;;63.80;38.63;;;29.40;99.90;;;;;;5006181;28;20028;-63
2021/12/13 13:07:14;;;;;;;73.72;42.08;;;29.40;99.90;;;;;;5008860;28;20056;-64
2021/12/13 13:09:48;;;;;;;81.68;47.05;;;29.30;99.90;;;;;;5011451;28;20026;-64
2021/12/13 13:12:30;;;;;;;71.03;43.13;;;29.30;99.90;;;;;;5000690;28;20034;-64
2021/12/13 13:14:58;;;;;;;78.05;47.15;;;29.20;99.90;;;;;;5006524;28;20213;-65
2021/12/13 13:17:29;;;;;;;69.88;41.30;;;29.30;99.90;;;;;;5015168;28;20391;-63